Westview, KY (40178)

10:04 AM CDT on October 31, 2014 (GMT -0500)
Eveleigh Road | Change Station
CLOSE
Current Station
Personal Weather Station
Location: Leitchfield, KY
Elevation: 670 ft
Nearby Weather Stations
Active Advisory: Freeze Watch, Special Statement

Elev 670 ft 37.58 °N, 86.34 °W | Updated 4 seconds ago

Overcast
Overcast
49.6 °F
Feels Like 45 °F
N
12.1
Wind Variable Wind from NW
Gusts 12.1 mph

Today
High -- | Low -- °F
--% Chance of Precip.
Yesterday
High -- | Low -- °F
Precip. -- in
7:09 AM 5:48 PM
First Quarter, 56% visible
Pressure 30.01 in
Visibility 10.0 miles
Clouds Scattered Clouds 1300 ft
Scattered Clouds 4400 ft
Mostly Cloudy 8000 ft
Windchill 45 °F
Dew Point 47 °F
Humidity 92%
Rainfall 0.02 in
Snow Depth Not available.
UV 1 out of 12
Pollen .30 out of 12
Air Quality Not available.
Flu Activity Not available.
METAR KFTK 311458Z AUTO 29009KT 10SM SCT013 SCT044 BKN080 09/07 A3000 RMK AO2 SLP163 T00890066 50004

More Conditions Fewer Conditions

Pressure 30.01 in
Visibility 10.0 miles
Clouds Scattered Clouds 1300 ft
Scattered Clouds 4400 ft
Mostly Cloudy 8000 ft
Windchill 45 °F
Dew Point 47 °F
Humidity 92%
Rainfall 0.02 in
Snow Depth Not available.
UV 1 out of 12
Pollen .30 out of 12
Air Quality Not available.
Flu Activity Not available.
METAR KFTK 311458Z AUTO 29009KT 10SM SCT013 SCT044 BKN080 09/07 A3000 RMK AO2 SLP163 T00890066 50004

More Conditions Fewer Conditions

10-Day Weather Forecast

Almanac

Astronomy

Oct. 31, 2014 Rise Set
Actual Time
Civil Twilight
Nautical Twilight
Astronomical Twilight
Moon
Length of Visible Light
Length of Day
Tomorrow will be .
, % of the Moon is Illuminated

Today's Extremes

State Highs State Lows

Community

WunderPhotos

Upload Photos

1,766,626 photos uploaded!

WunderBlogs® & News

Nearby

Air Quality

  Air Quality AQ Index Pollutant
Not available.

Snow Depth

Station Depth Elevation

Earthquake Activity

City Distance Mag. Time & Date
Minimum magnitude displayed is 2.5.

Coastal Water Temperatures

Place Temperature

Nearby Weather Stations